Terminal Aerodrome Forecast
Issued by NWS Shreveport, LA

Home | Current Version | Previous Version | Text Only | Print | Product List | Glossary On
Versions: 1 2 3 4 5 6 7 8 9 10 11 12 13 14
000
FTUS44 KSHV 042320
TAFSHV
TAF
KSHV 042320Z 0500/0524 30006KT P6SM FEW070
     FM050600 34004KT P6SM SKC
     FM051400 01007KT P6SM SKC
     FM051800 35012G17KT P6SM FEW250=

USA.gov is the U.S. government's official web portal to all federal, state and local government web resources and services.